Time;durP1;ratioP1;P1;durP2;ratioP2;P2;SDS_P1;SDS_P2;PMS_P1;PMS_P2;Temp;Humidity;BMP_temperature;BMP_pressure;BME280_temperature;BME280_humidity;BME280_pressure;Samples;Min_cycle;Max_cycle;Signal;HPM_P1;HPM_P2
2021/09/04 00:02:00;;;;;;;8.23;3.92;;;;;;;;;;5073837;28;20103;-65
2021/09/04 00:04:26;;;;;;;6.68;3.97;;;;;;;;;;5075202;28;20490;-66
2021/09/04 00:06:52;;;;;;;9.20;4.47;;;;;;;;;;5075246;28;20017;-66
2021/09/04 00:09:18;;;;;;;7.57;4.22;;;;;;;;;;5075163;28;20028;-66
2021/09/04 00:11:44;;;;;;;9.80;4.60;;;;;;;;;;5072902;28;20103;-66
2021/09/04 00:14:10;;;;;;;7.93;4.75;;;;;;;;;;5075008;28;20025;-66
2021/09/04 00:16:36;;;;;;;8.43;4.93;;;;;;;;;;5074933;28;20016;-67
2021/09/04 00:19:02;;;;;;;12.27;5.07;;;;;;;;;;5073645;28;20027;-67
2021/09/04 00:21:28;;;;;;;10.35;4.60;;;;;;;;;;5075000;28;20024;-67
2021/09/04 00:23:54;;;;;;;8.30;4.40;;;;;;;;;;5074575;28;20475;-66
2021/09/04 00:26:22;;;;;;;8.75;4.65;;;;;;;;;;5073413;28;20116;-66
2021/09/04 00:28:49;;;;;;;9.65;4.20;;;;;;;;;;5073919;28;20467;-66
2021/09/04 00:31:15;;;;;;;8.98;4.53;;;;;;;;;;5074742;28;20051;-66
2021/09/04 00:33:41;;;;;;;7.10;4.53;;;;;;;;;;5074886;28;20036;-66
2021/09/04 00:36:07;;;;;;;8.65;5.20;;;;;;;;;;5073499;28;20085;-66
2021/09/04 00:38:33;;;;;;;11.32;6.25;;;;;;;;;;5074583;28;20028;-66
2021/09/04 00:40:59;;;;;;;12.98;7.90;;;;;;;;;;5074803;28;20024;-66
2021/09/04 00:43:25;;;;;;;13.38;8.45;;;;;;;;;;5074601;28;20033;-66
2021/09/04 00:45:51;;;;;;;18.17;10.57;;;;;;;;;;5072223;28;20390;-66
2021/09/04 00:48:17;;;;;;;15.82;10.60;;;;;;;;;;5074558;28;20032;-67
2021/09/04 00:50:44;;;;;;;14.02;8.75;;;;;;;;;;5074395;28;20028;-66
2021/09/04 00:53:10;;;;;;;12.63;7.80;;;;;;;;;;5074557;28;20036;-66
2021/09/04 00:55:36;;;;;;;13.82;7.25;;;;;;;;;;5074349;28;20037;-65
2021/09/04 00:58:02;;;;;;;14.00;7.30;;;;;;;;;;5074263;28;20044;-66
2021/09/04 01:00:29;;;;;;;11.85;7.18;;;;;;;;;;5074250;28;20048;-66
2021/09/04 01:02:55;;;;;;;13.02;7.45;;;;;;;;;;5073478;28;20027;-66
2021/09/04 01:05:22;;;;;;;15.38;6.95;;;;;;;;;;5073954;28;20365;-66
2021/09/04 01:07:48;;;;;;;8.77;5.75;;;;;;;;;;5071477;28;20024;-66
2021/09/04 01:10:15;;;;;;;9.68;6.43;;;;;;;;;;5074294;28;20032;-66
2021/09/04 01:12:41;;;;;;;10.43;6.25;;;;;;;;;;5073075;28;20471;-65
2021/09/04 01:15:08;;;;;;;9.10;6.18;;;;;;;;;;5074035;28;20665;-66
2021/09/04 01:17:34;;;;;;;9.23;6.05;;;;;;;;;;5073956;28;20017;-66
2021/09/04 01:20:00;;;;;;;8.32;5.50;;;;;;;;;;5072938;28;20032;-65
2021/09/04 01:22:30;;;;;;;9.77;5.65;;;;;;;;;;5073864;28;20544;-65
2021/09/04 01:25:00;;;;;;;10.23;6.15;;;;;;;;;;5072486;28;20036;-66
2021/09/04 01:27:26;;;;;;;10.55;5.45;;;;;;;;;;5072499;28;20025;-66
2021/09/04 01:29:52;;;;;;;10.38;5.00;;;;;;;;;;5073719;28;20479;-67
2021/09/04 01:32:18;;;;;;;8.48;5.10;;;;;;;;;;5073710;28;20471;-68
2021/09/04 01:34:44;;;;;;;8.35;4.90;;;;;;;;;;5073714;28;20484;-66
2021/09/04 01:37:10;;;;;;;7.95;4.90;;;;;;;;;;5069900;28;20024;-67
2021/09/04 01:39:37;;;;;;;8.30;4.80;;;;;;;;;;5053690;28;20024;-66
2021/09/04 01:42:03;;;;;;;8.93;4.30;;;;;;;;;;5069119;28;20028;-66
2021/09/04 01:44:29;;;;;;;12.20;5.18;;;;;;;;;;5053651;28;20091;-66
2021/09/04 01:46:55;;;;;;;10.65;4.75;;;;;;;;;;5053562;28;20048;-66
2021/09/04 01:49:21;;;;;;;7.95;4.75;;;;;;;;;;5053681;28;20029;-66
2021/09/04 01:51:47;;;;;;;7.40;4.55;;;;;;;;;;5053560;28;20036;-66
2021/09/04 01:54:13;;;;;;;55.00;5.40;;;;;;;;;;5069015;28;20448;-65
2021/09/04 01:56:39;;;;;;;10.77;4.47;;;;;;;;;;5053283;28;20041;-66
2021/09/04 01:59:05;;;;;;;10.50;4.82;;;;;;;;;;5053470;28;20057;-66
2021/09/04 02:01:31;;;;;;;10.20;4.40;;;;;;;;;;5053745;28;20487;-66
2021/09/04 02:03:58;;;;;;;8.27;4.15;;;;;;;;;;5068486;28;20484;-67
2021/09/04 02:06:24;;;;;;;10.43;4.20;;;;;;;;;;5053196;28;20095;-66
2021/09/04 02:08:50;;;;;;;7.70;4.10;;;;;;;;;;5063656;28;20096;-66
2021/09/04 02:11:16;;;;;;;7.57;3.85;;;;;;;;;;5071750;28;20056;-66
2021/09/04 02:13:42;;;;;;;7.43;4.10;;;;;;;;;;5073195;28;20095;-66
2021/09/04 02:16:08;;;;;;;9.02;4.32;;;;;;;;;;5073056;28;20065;-66
2021/09/04 02:18:34;;;;;;;7.70;4.20;;;;;;;;;;5088846;28;20032;-66
2021/09/04 02:21:01;;;;;;;8.10;3.97;;;;;;;;;;5088547;28;20115;-66
2021/09/04 02:23:27;;;;;;;5.97;3.42;;;;;;;;;;5072603;28;20075;-66
2021/09/04 02:25:53;;;;;;;6.28;3.92;;;;;;;;;;5072848;28;20024;-65
2021/09/04 02:28:19;;;;;;;8.63;3.70;;;;;;;;;;5070660;28;20025;-66
2021/09/04 02:30:45;;;;;;;8.10;3.90;;;;;;;;;;5073103;28;20032;-66
2021/09/04 02:33:11;;;;;;;5.60;3.38;;;;;;;;;;5071645;28;20024;-66
2021/09/04 02:35:38;;;;;;;6.00;3.55;;;;;;;;;;5072911;28;20020;-66
2021/09/04 02:38:04;;;;;;;6.88;3.65;;;;;;;;;;5072590;28;20052;-67
2021/09/04 02:40:30;;;;;;;6.20;3.17;;;;;;;;;;5072683;28;20499;-66
2021/09/04 02:42:56;;;;;;;6.55;3.33;;;;;;;;;;5072735;28;20025;-66
2021/09/04 02:45:22;;;;;;;6.35;3.70;;;;;;;;;;5070307;28;20059;-66
2021/09/04 02:47:48;;;;;;;7.82;3.70;;;;;;;;;;5072234;28;20070;-66
2021/09/04 02:50:14;;;;;;;5.53;3.35;;;;;;;;;;5072539;28;20499;-66
2021/09/04 02:52:40;;;;;;;7.40;3.53;;;;;;;;;;5072627;28;20012;-66
2021/09/04 02:55:07;;;;;;;5.68;2.95;;;;;;;;;;5071293;28;20020;-66
2021/09/04 02:57:33;;;;;;;5.95;3.40;;;;;;;;;;5072062;28;20067;-66
2021/09/04 02:59:59;;;;;;;6.72;3.85;;;;;;;;;;5072339;28;20020;-66
2021/09/04 03:02:25;;;;;;;6.47;4.00;;;;;;;;;;5071080;28;20036;-65
2021/09/04 03:04:51;;;;;;;6.47;3.17;;;;;;;;;;5072185;28;20033;-66
2021/09/04 03:07:17;;;;;;;6.95;3.80;;;;;;;;;;5072301;28;20016;-66
2021/09/04 03:09:43;;;;;;;7.65;3.50;;;;;;;;;;5072269;28;20039;-66
2021/09/04 03:12:09;;;;;;;6.93;3.42;;;;;;;;;;5072360;28;20021;-66
2021/09/04 03:14:35;;;;;;;6.55;3.70;;;;;;;;;;5070925;28;20024;-66
2021/09/04 03:17:02;;;;;;;6.90;3.47;;;;;;;;;;5072085;28;20017;-66
2021/09/04 03:19:28;;;;;;;8.07;3.72;;;;;;;;;;5072302;28;20029;-66
2021/09/04 03:21:54;;;;;;;7.20;3.67;;;;;;;;;;5072150;28;20029;-66
2021/09/04 03:24:20;;;;;;;6.65;3.67;;;;;;;;;;5072035;28;20024;-66
2021/09/04 03:26:46;;;;;;;8.63;3.60;;;;;;;;;;5072275;28;20029;-66
2021/09/04 03:29:12;;;;;;;6.00;3.40;;;;;;;;;;5071946;28;20020;-67
2021/09/04 03:31:38;;;;;;;10.60;3.60;;;;;;;;;;5072116;28;20506;-66
2021/09/04 03:34:04;;;;;;;6.88;3.30;;;;;;;;;;5071907;28;20143;-66
2021/09/04 03:36:30;;;;;;;6.57;3.47;;;;;;;;;;5074093;28;20035;-66
2021/09/04 03:38:56;;;;;;;5.38;3.13;;;;;;;;;;5076242;28;20021;-66
2021/09/04 03:41:22;;;;;;;6.80;3.25;;;;;;;;;;5076293;28;20028;-66
2021/09/04 03:43:48;;;;;;;5.70;3.40;;;;;;;;;;5075959;28;20038;-66
2021/09/04 03:46:14;;;;;;;5.80;3.20;;;;;;;;;;5076047;28;20025;-66
2021/09/04 03:48:40;;;;;;;7.90;3.25;;;;;;;;;;5074621;28;20024;-66
2021/09/04 03:51:06;;;;;;;6.55;3.40;;;;;;;;;;5075847;28;20104;-66
2021/09/04 03:53:33;;;;;;;7.72;3.33;;;;;;;;;;5075940;28;20078;-67
2021/09/04 03:55:59;;;;;;;6.47;3.75;;;;;;;;;;5074602;28;20476;-66
2021/09/04 03:58:25;;;;;;;6.13;3.45;;;;;;;;;;5074277;28;20415;-66
2021/09/04 04:00:51;;;;;;;5.80;2.92;;;;;;;;;;5075820;28;20020;-66
2021/09/04 04:03:17;;;;;;;5.93;3.55;;;;;;;;;;5075756;28;20024;-66
2021/09/04 04:05:43;;;;;;;5.15;3.05;;;;;;;;;;5075698;28;20025;-66
2021/09/04 04:08:09;;;;;;;5.90;3.30;;;;;;;;;;5075470;28;20096;-66
2021/09/04 04:10:35;;;;;;;6.55;3.38;;;;;;;;;;5075475;28;20024;-66
2021/09/04 04:13:01;;;;;;;6.30;3.15;;;;;;;;;;5075488;28;20024;-66
2021/09/04 04:15:27;;;;;;;7.22;3.75;;;;;;;;;;5074099;28;20028;-66
2021/09/04 04:17:53;;;;;;;8.43;3.80;;;;;;;;;;5075334;28;20025;-66
2021/09/04 04:20:19;;;;;;;7.32;3.35;;;;;;;;;;5074015;28;20052;-66
2021/09/04 04:22:45;;;;;;;6.22;3.10;;;;;;;;;;5075445;28;20475;-66
2021/09/04 04:25:12;;;;;;;5.65;3.20;;;;;;;;;;5074098;28;20032;-66
2021/09/04 04:27:38;;;;;;;5.18;3.10;;;;;;;;;;5075228;28;20021;-65
2021/09/04 04:30:05;;;;;;;10.45;3.35;;;;;;;;;;5075541;28;20017;-66
2021/09/04 04:32:31;;;;;;;7.00;3.53;;;;;;;;;;5075123;28;20024;-66
2021/09/04 04:34:57;;;;;;;6.03;3.42;;;;;;;;;;5073967;28;20024;-66
2021/09/04 04:37:23;;;;;;;6.38;3.22;;;;;;;;;;5075112;28;20464;-66
2021/09/04 04:39:49;;;;;;;7.57;3.45;;;;;;;;;;5074010;28;20020;-66
2021/09/04 04:42:15;;;;;;;6.50;3.00;;;;;;;;;;5074903;28;20149;-66
2021/09/04 04:44:41;;;;;;;7.60;3.22;;;;;;;;;;5074679;28;20066;-66
2021/09/04 04:47:08;;;;;;;7.97;3.30;;;;;;;;;;5072898;28;20025;-66
2021/09/04 04:49:34;;;;;;;6.80;3.53;;;;;;;;;;5074937;28;20502;-66
2021/09/04 04:52:00;;;;;;;8.43;3.38;;;;;;;;;;5075024;28;20092;-66
2021/09/04 04:54:27;;;;;;;6.07;3.40;;;;;;;;;;5074859;28;20102;-66
2021/09/04 04:56:53;;;;;;;6.55;3.38;;;;;;;;;;5090148;28;20048;-67
2021/09/04 04:59:19;;;;;;;6.35;3.35;;;;;;;;;;5074895;28;20511;-66
2021/09/04 05:01:46;;;;;;;6.35;3.38;;;;;;;;;;5088965;28;20048;-66
2021/09/04 05:04:12;;;;;;;7.75;3.35;;;;;;;;;;5074549;28;20029;-66
2021/09/04 05:06:38;;;;;;;5.57;2.90;;;;;;;;;;5074550;28;20048;-65
2021/09/04 05:09:04;;;;;;;5.20;3.25;;;;;;;;;;5074414;28;20015;-66
2021/09/04 05:11:30;;;;;;;5.10;3.00;;;;;;;;;;5074487;28;20025;-66
2021/09/04 05:13:56;;;;;;;6.00;3.47;;;;;;;;;;5073189;28;20112;-66
2021/09/04 05:16:22;;;;;;;7.80;3.58;;;;;;;;;;5074377;28;20052;-66
2021/09/04 05:18:48;;;;;;;5.57;3.30;;;;;;;;;;5074481;28;20028;-66
2021/09/04 05:21:14;;;;;;;8.10;3.42;;;;;;;;;;5074389;28;20032;-66
2021/09/04 05:23:41;;;;;;;7.10;3.28;;;;;;;;;;5072948;28;20066;-66
2021/09/04 05:26:07;;;;;;;5.55;3.28;;;;;;;;;;5074099;28;20025;-66
2021/09/04 05:28:33;;;;;;;6.05;3.20;;;;;;;;;;5072881;28;20615;-66
2021/09/04 05:31:00;;;;;;;5.63;3.35;;;;;;;;;;5074090;28;20024;-66
2021/09/04 05:33:26;;;;;;;6.50;3.13;;;;;;;;;;5073906;28;20017;-66
2021/09/04 05:35:53;;;;;;;5.05;2.95;;;;;;;;;;5072636;28;20032;-65
2021/09/04 05:38:19;;;;;;;6.35;3.00;;;;;;;;;;5073936;28;20464;-66
2021/09/04 05:40:45;;;;;;;5.85;3.30;;;;;;;;;;5074048;28;20028;-66
2021/09/04 05:43:11;;;;;;;7.25;3.67;;;;;;;;;;5073940;28;20025;-66
2021/09/04 05:45:37;;;;;;;7.30;3.30;;;;;;;;;;5073918;28;20556;-66
2021/09/04 05:48:03;;;;;;;8.18;4.45;;;;;;;;;;5072451;28;20636;-66
2021/09/04 05:50:29;;;;;;;8.45;3.80;;;;;;;;;;5073579;28;20080;-65
2021/09/04 05:52:55;;;;;;;7.88;3.58;;;;;;;;;;5073340;28;20021;-67
2021/09/04 05:55:21;;;;;;;6.80;3.92;;;;;;;;;;5073429;28;20549;-65
2021/09/04 05:57:47;;;;;;;8.80;4.30;;;;;;;;;;5071922;28;20564;-66
2021/09/04 06:00:14;;;;;;;7.65;3.83;;;;;;;;;;5072811;28;20029;-65
2021/09/04 06:02:40;;;;;;;7.25;3.50;;;;;;;;;;5073141;28;20085;-66
2021/09/04 06:05:07;;;;;;;6.88;3.55;;;;;;;;;;5073307;28;20024;-65
2021/09/04 06:07:33;;;;;;;10.45;4.15;;;;;;;;;;5073377;28;20044;-66
2021/09/04 06:09:59;;;;;;;6.88;3.80;;;;;;;;;;5072627;28;20016;-66
2021/09/04 06:12:25;;;;;;;7.53;3.70;;;;;;;;;;5072882;28;20373;-70
2021/09/04 06:14:51;;;;;;;8.27;4.35;;;;;;;;;;5072844;28;20492;-66
2021/09/04 06:17:17;;;;;;;8.52;4.05;;;;;;;;;;5072805;28;20048;-68
2021/09/04 06:19:43;;;;;;;7.68;4.40;;;;;;;;;;5063173;28;20100;-67
2021/09/04 06:22:09;;;;;;;7.28;3.83;;;;;;;;;;5072531;28;20476;-66
2021/09/04 06:24:35;;;;;;;8.32;4.13;;;;;;;;;;5072413;28;20033;-66
2021/09/04 06:27:01;;;;;;;8.18;3.92;;;;;;;;;;5072623;28;20012;-66
2021/09/04 06:29:27;;;;;;;7.32;4.07;;;;;;;;;;5072712;28;20019;-66
2021/09/04 06:31:53;;;;;;;8.65;4.32;;;;;;;;;;5072627;28;20099;-67
2021/09/04 06:34:19;;;;;;;10.27;4.13;;;;;;;;;;5063261;28;20427;-66
2021/09/04 06:36:46;;;;;;;8.73;4.70;;;;;;;;;;5072229;28;20021;-67
2021/09/04 06:39:12;;;;;;;8.32;4.13;;;;;;;;;;5072238;28;20040;-67
2021/09/04 06:41:38;;;;;;;9.15;4.43;;;;;;;;;;5071074;28;20020;-67
2021/09/04 06:44:04;;;;;;;7.85;4.13;;;;;;;;;;5072103;28;20040;-67
2021/09/04 06:46:32;;;;;;;8.57;4.50;;;;;;;;;;5070744;28;20039;-67
2021/09/04 06:48:59;;;;;;;7.45;4.40;;;;;;;;;;5069083;28;20085;-67
2021/09/04 06:51:25;;;;;;;9.13;3.90;;;;;;;;;;5071987;28;20032;-67
2021/09/04 06:53:52;;;;;;;7.78;4.25;;;;;;;;;;5071765;28;20027;-66
2021/09/04 06:56:18;;;;;;;7.90;3.97;;;;;;;;;;5068606;28;20017;-67
2021/09/04 06:58:44;;;;;;;9.25;4.53;;;;;;;;;;5071659;28;20039;-67
2021/09/04 07:01:10;;;;;;;8.45;4.22;;;;;;;;;;5070936;28;20052;-67
2021/09/04 07:03:36;;;;;;;8.40;4.25;;;;;;;;;;5072050;28;20367;-69
2021/09/04 07:06:03;;;;;;;11.02;4.07;;;;;;;;;;5067729;28;20136;-67
2021/09/04 07:08:30;;;;;;;6.93;3.58;;;;;;;;;;5063402;28;20031;-67
2021/09/04 07:10:56;;;;;;;9.32;3.78;;;;;;;;;;5070875;28;20025;-67
2021/09/04 07:13:22;;;;;;;6.50;3.60;;;;;;;;;;5072283;28;20977;-68
2021/09/04 07:15:48;;;;;;;5.82;3.13;;;;;;;;;;5071455;28;20077;-67
2021/09/04 07:18:14;;;;;;;6.70;3.70;;;;;;;;;;5072056;28;20394;-67
2021/09/04 07:20:40;;;;;;;6.47;3.50;;;;;;;;;;5072075;28;20024;-66
2021/09/04 07:23:06;;;;;;;7.50;3.53;;;;;;;;;;5071531;28;20043;-68
2021/09/04 07:25:32;;;;;;;7.25;3.08;;;;;;;;;;5063886;28;20029;-67
2021/09/04 07:27:58;;;;;;;7.07;3.38;;;;;;;;;;5070650;28;20555;-67
2021/09/04 07:30:24;;;;;;;8.60;3.33;;;;;;;;;;5061128;28;20067;-67
2021/09/04 07:32:51;;;;;;;5.25;2.72;;;;;;;;;;5069239;28;20052;-67
2021/09/04 07:35:17;;;;;;;5.20;2.72;;;;;;;;;;5070799;28;20020;-67
2021/09/04 07:37:43;;;;;;;5.95;3.17;;;;;;;;;;5071236;28;20660;-64
2021/09/04 07:40:09;;;;;;;6.85;3.63;;;;;;;;;;5072014;28;20052;-67
2021/09/04 07:42:35;;;;;;;7.82;3.55;;;;;;;;;;5071512;28;20029;-67
2021/09/04 07:45:01;;;;;;;8.68;3.35;;;;;;;;;;5070336;28;20506;-67
2021/09/04 07:47:27;;;;;;;8.85;3.50;;;;;;;;;;5071781;28;20045;-67
2021/09/04 07:49:53;;;;;;;5.28;3.10;;;;;;;;;;5070608;28;20048;-66
2021/09/04 07:52:19;;;;;;;8.20;3.20;;;;;;;;;;5071756;28;20028;-67
2021/09/04 07:54:45;;;;;;;5.88;2.83;;;;;;;;;;5070386;28;20469;-67
2021/09/04 07:57:11;;;;;;;7.47;3.00;;;;;;;;;;5071676;28;20048;-67
2021/09/04 07:59:37;;;;;;;8.63;3.53;;;;;;;;;;5071817;28;20021;-66
2021/09/04 08:02:03;;;;;;;10.43;3.38;;;;;;;;;;5071822;28;20033;-67
2021/09/04 08:04:29;;;;;;;5.15;2.90;;;;;;;;;;5070267;28;20047;-67
2021/09/04 08:06:55;;;;;;;6.40;2.70;;;;;;;;;;5071674;28;20016;-67
2021/09/04 08:09:21;;;;;;;6.95;2.78;;;;;;;;;;5071969;28;20020;-67
2021/09/04 08:11:47;;;;;;;4.75;2.40;;;;;;;;;;5070480;28;20028;-66
2021/09/04 08:14:13;;;;;;;5.95;3.00;;;;;;;;;;5071924;28;20028;-67
2021/09/04 08:16:40;;;;;;;5.53;2.70;;;;;;;;;;5070295;28;20115;-67
2021/09/04 08:19:06;;;;;;;5.15;2.65;;;;;;;;;;5070425;28;20383;-67
2021/09/04 08:21:32;;;;;;;7.95;2.92;;;;;;;;;;5071870;28;20048;-67
2021/09/04 08:23:58;;;;;;;5.38;2.80;;;;;;;;;;5074989;28;20028;-68
2021/09/04 08:26:24;;;;;;;9.02;3.20;;;;;;;;;;5075285;28;20069;-67
2021/09/04 08:28:50;;;;;;;8.95;3.17;;;;;;;;;;5075023;28;20494;-67
2021/09/04 08:31:17;;;;;;;9.30;3.30;;;;;;;;;;5073927;28;20090;-67
2021/09/04 08:33:43;;;;;;;8.40;2.92;;;;;;;;;;5075073;28;20028;-66
2021/09/04 08:36:09;;;;;;;7.00;3.20;;;;;;;;;;5074998;28;20027;-66
2021/09/04 08:38:35;;;;;;;9.07;3.30;;;;;;;;;;5075080;28;20048;-67
2021/09/04 08:41:01;;;;;;;6.03;2.80;;;;;;;;;;5073470;28;20013;-67
2021/09/04 08:43:27;;;;;;;10.07;3.40;;;;;;;;;;5074846;28;20059;-67
2021/09/04 08:45:53;;;;;;;7.35;3.20;;;;;;;;;;5074716;28;20029;-67
2021/09/04 08:48:20;;;;;;;7.18;2.72;;;;;;;;;;5073541;28;20020;-66
2021/09/04 08:50:46;;;;;;;7.45;2.83;;;;;;;;;;5073332;28;20028;-66
2021/09/04 08:53:12;;;;;;;8.60;3.08;;;;;;;;;;5074447;28;20077;-67
2021/09/04 08:55:38;;;;;;;6.32;2.88;;;;;;;;;;5074449;28;20046;-67
2021/09/04 08:58:04;;;;;;;5.47;2.70;;;;;;;;;;5089891;28;20044;-68
2021/09/04 09:00:36;;;;;;;24.98;2.70;;;;;;;;;;5074447;28;20025;-67
2021/09/04 09:03:02;;;;;;;5.35;2.90;;;;;;;;;;5074231;28;20052;-67
2021/09/04 09:05:41;;;;;;;5.93;2.80;;;;;;;;;;5074066;28;20035;-67
2021/09/04 09:08:08;;;;;;;4.30;2.42;;;;;;;;;;5073136;28;20028;-65
2021/09/04 09:10:36;;;;;;;4.93;2.42;;;;;;;;;;5071705;28;20020;-65
2021/09/04 09:13:02;;;;;;;4.82;2.42;;;;;;;;;;5071828;28;20024;-66
2021/09/04 09:15:29;;;;;;;5.80;2.28;;;;;;;;;;5074046;28;20489;-65
2021/09/04 09:17:59;;;;;;;6.20;2.55;;;;;;;;;;5074125;28;20027;-66
2021/09/04 09:20:25;;;;;;;8.40;2.78;;;;;;;;;;5074753;28;20060;-66
2021/09/04 09:22:51;;;;;;;8.20;2.60;;;;;;;;;;5074215;28;20016;-65
2021/09/04 09:25:18;;;;;;;10.30;3.17;;;;;;;;;;5072904;28;20390;-66
2021/09/04 09:28:04;;;;;;;9.88;2.92;;;;;;;;;;5073841;28;20023;-66
2021/09/04 09:30:35;;;;;;;7.78;2.85;;;;;;;;;;5073589;28;20099;-66
2021/09/04 09:33:01;;;;;;;11.07;2.90;;;;;;;;;;5073253;28;20017;-66
2021/09/04 09:35:34;;;;;;;4.82;2.30;;;;;;;;;;5071931;28;20501;-66
2021/09/04 09:38:01;;;;;;;5.75;2.25;;;;;;;;;;5072290;28;20032;-66
2021/09/04 09:40:27;;;;;;;5.50;2.58;;;;;;;;;;5073346;28;20020;-66
2021/09/04 09:42:53;;;;;;;8.50;2.83;;;;;;;;;;5073563;28;20419;-66
2021/09/04 09:45:20;;;;;;;6.72;2.72;;;;;;;;;;5067939;28;20028;-66
2021/09/04 09:47:52;;;;;;;11.82;2.53;;;;;;;;;;5071038;28;20035;-68
2021/09/04 09:50:18;;;;;;;;;;;;;;;;;;5059540;28;20060;-65
2021/09/04 09:52:47;;;;;;;9.32;2.72;;;;;;;;;;5072704;28;19955;-67
2021/09/04 09:55:13;;;;;;;7.88;2.45;;;;;;;;;;5072775;28;20046;-69
2021/09/04 09:57:41;;;;;;;6.93;2.45;;;;;;;;;;5072419;28;20499;-69
2021/09/04 10:00:07;;;;;;;6.75;2.40;;;;;;;;;;5088522;28;20031;-68
2021/09/04 10:02:34;;;;;;;7.05;2.55;;;;;;;;;;5068822;28;20013;-70
2021/09/04 10:05:00;;;;;;;8.68;2.58;;;;;;;;;;5052784;28;20029;-66
2021/09/04 10:07:26;;;;;;;5.95;2.92;;;;;;;;;;5052539;28;20117;-66
2021/09/04 10:09:52;;;;;;;8.45;2.38;;;;;;;;;;5065965;28;20085;-65
2021/09/04 10:12:19;;;;;;;15.80;2.70;;;;;;;;;;5072763;28;20028;-67
2021/09/04 10:14:46;;;;;;;5.72;2.53;;;;;;;;;;5072914;28;20369;-70
2021/09/04 10:17:12;;;;;;;6.18;2.03;;;;;;;;;;5072792;28;20020;-67
2021/09/04 10:19:39;;;;;;;8.57;3.15;;;;;;;;;;5073066;28;20578;-66
2021/09/04 10:22:09;;;;;;;5.60;2.40;;;;;;;;;;5072764;28;20479;-66
2021/09/04 10:24:54;;;;;;;4.72;2.33;;;;;;;;;;5072293;28;20043;-68
2021/09/04 10:27:29;;;;;;;7.78;2.20;;;;;;;;;;5072654;28;20371;-67
2021/09/04 10:29:55;;;;;;;8.52;2.47;;;;;;;;;;5072883;28;20099;-66
2021/09/04 10:32:21;;;;;;;7.97;2.10;;;;;;;;;;5072744;28;20025;-67
2021/09/04 10:34:48;;;;;;;6.25;2.80;;;;;;;;;;5072470;28;20491;-66
2021/09/04 10:37:14;;;;;;;7.97;2.58;;;;;;;;;;5072741;28;20039;-66
2021/09/04 10:39:46;;;;;;;7.90;2.33;;;;;;;;;;5065590;28;20036;-67
2021/09/04 10:42:16;;;;;;;9.95;2.55;;;;;;;;;;5080734;28;20065;-66
2021/09/04 10:44:44;;;;;;;21.35;3.45;;;;;;;;;;5071713;28;20125;-66
2021/09/04 10:47:10;;;;;;;10.50;2.53;;;;;;;;;;5069729;28;20166;-66
2021/09/04 10:49:44;;;;;;;29.88;4.22;;;;;;;;;;5072371;28;20111;-67
2021/09/04 10:52:10;;;;;;;18.90;4.03;;;;;;;;;;5071026;28;20113;-67
2021/09/04 10:54:38;;;;;;;14.77;3.92;;;;;;;;;;5071166;28;20016;-67
2021/09/04 10:57:14;;;;;;;13.45;3.92;;;;;;;;;;5070499;28;20052;-67
2021/09/04 10:59:59;;;;;;;20.70;3.70;;;;;;;;;;5070484;28;20069;-67
2021/09/04 11:02:38;;;;;;;13.70;3.38;;;;;;;;;;5070579;28;20024;-67
2021/09/04 11:05:23;;;;;;;15.65;3.40;;;;;;;;;;5070879;28;20096;-67
2021/09/04 11:07:58;;;;;;;11.55;3.40;;;;;;;;;;5071080;28;20032;-68
2021/09/04 11:10:24;;;;;;;11.57;3.08;;;;;;;;;;5071445;28;20082;-67
2021/09/04 11:13:07;;;;;;;14.98;3.80;;;;;;;;;;5071943;28;20202;-68
2021/09/04 11:15:33;;;;;;;8.50;3.25;;;;;;;;;;5069689;28;20021;-67
2021/09/04 11:17:59;;;;;;;16.15;3.47;;;;;;;;;;5071651;28;20539;-67
2021/09/04 11:20:25;;;;;;;12.73;3.70;;;;;;;;;;5071847;28;20127;-67
2021/09/04 11:22:52;;;;;;;8.25;3.13;;;;;;;;;;5070251;28;20025;-67
2021/09/04 11:25:20;;;;;;;7.43;3.15;;;;;;;;;;5070259;28;20029;-67
2021/09/04 11:27:47;;;;;;;8.88;3.47;;;;;;;;;;5071656;28;20039;-67
2021/09/04 11:30:16;;;;;;;9.07;4.03;;;;;;;;;;5071574;28;20025;-67
2021/09/04 11:32:43;;;;;;;10.18;3.58;;;;;;;;;;5070465;28;20037;-67
2021/09/04 11:35:09;;;;;;;9.95;3.50;;;;;;;;;;5071421;28;20071;-67
2021/09/04 11:37:36;;;;;;;12.77;3.60;;;;;;;;;;5071845;28;20498;-67
2021/09/04 11:40:12;;;;;;;10.52;3.40;;;;;;;;;;5071670;28;20024;-67
2021/09/04 11:42:39;;;;;;;8.77;3.83;;;;;;;;;;5071849;28;20073;-67
2021/09/04 11:45:12;;;;;;;10.73;3.85;;;;;;;;;;5071711;28;20037;-67
2021/09/04 11:47:39;;;;;;;8.40;3.72;;;;;;;;;;5071589;28;20028;-67
2021/09/04 11:50:09;;;;;;;6.85;3.28;;;;;;;;;;5071410;28;20115;-67
2021/09/04 11:52:39;;;;;;;6.70;3.13;;;;;;;;;;5071469;28;20443;-68
2021/09/04 11:55:13;;;;;;;8.63;3.15;;;;;;;;;;5071524;28;20071;-67
2021/09/04 11:57:43;;;;;;;6.45;3.10;;;;;;;;;;5073645;28;20052;-67
2021/09/04 12:00:22;;;;;;;5.20;2.67;;;;;;;;;;5075618;28;20028;-67
2021/09/04 12:02:48;;;;;;;6.28;2.88;;;;;;;;;;5075547;28;20052;-67
2021/09/04 12:05:15;;;;;;;7.88;2.95;;;;;;;;;;5075278;28;20040;-67
2021/09/04 12:07:41;;;;;;;5.57;3.13;;;;;;;;;;5075268;28;20360;-68
2021/09/04 12:10:08;;;;;;;6.82;2.78;;;;;;;;;;5075067;28;20384;-67
2021/09/04 12:12:35;;;;;;;5.80;3.15;;;;;;;;;;5075059;28;20497;-67
2021/09/04 12:15:02;;;;;;;7.07;2.90;;;;;;;;;;5073698;28;20123;-67
2021/09/04 12:17:28;;;;;;;6.32;3.08;;;;;;;;;;5055043;28;20020;-67
2021/09/04 12:19:54;;;;;;;7.47;2.70;;;;;;;;;;5053750;28;20055;-67
2021/09/04 12:22:33;;;;;;;6.90;2.80;;;;;;;;;;5054969;28;20021;-67
2021/09/04 12:24:59;;;;;;;10.32;2.83;;;;;;;;;;5054735;28;20033;-68
2021/09/04 12:27:46;;;;;;;4.85;2.42;;;;;;;;;;5053730;28;20365;-67
2021/09/04 12:30:12;;;;;;;5.53;2.75;;;;;;;;;;5054976;28;20059;-67
2021/09/04 12:32:38;;;;;;;5.80;2.45;;;;;;;;;;5054732;28;20025;-68
2021/09/04 12:35:06;;;;;;;6.20;2.88;;;;;;;;;;5053425;28;20021;-68
2021/09/04 12:37:33;;;;;;;5.15;2.63;;;;;;;;;;5053412;28;20036;-67
2021/09/04 12:40:09;;;;;;;4.75;2.30;;;;;;;;;;5068405;28;20060;-67
2021/09/04 12:42:36;;;;;;;6.07;2.85;;;;;;;;;;5074557;28;20016;-68
2021/09/04 12:45:07;;;;;;;4.75;2.45;;;;;;;;;;5074575;28;20616;-67
2021/09/04 12:47:43;;;;;;;6.43;2.72;;;;;;;;;;5073729;28;20112;-67
2021/09/04 12:50:19;;;;;;;4.07;2.17;;;;;;;;;;5074337;28;20036;-67
2021/09/04 12:52:46;;;;;;;6.63;3.03;;;;;;;;;;5074635;28;20040;-68
2021/09/04 12:55:12;;;;;;;4.97;2.20;;;;;;;;;;5074612;28;20024;-68
2021/09/04 12:57:38;;;;;;;4.70;2.70;;;;;;;;;;5074391;28;20047;-67
2021/09/04 13:00:05;;;;;;;6.60;3.28;;;;;;;;;;5074445;28;20098;-68
2021/09/04 13:02:39;;;;;;;4.72;2.47;;;;;;;;;;5074265;28;20017;-68
2021/09/04 13:05:06;;;;;;;4.90;2.30;;;;;;;;;;5074057;28;20043;-68
2021/09/04 13:07:42;;;;;;;5.60;2.92;;;;;;;;;;5072650;28;20490;-67
2021/09/04 13:10:09;;;;;;;4.90;2.63;;;;;;;;;;5073359;28;20095;-67
2021/09/04 13:12:35;;;;;;;5.15;3.03;;;;;;;;;;5072794;28;20020;-67
2021/09/04 13:15:02;;;;;;;5.47;2.80;;;;;;;;;;5073942;28;20024;-67
2021/09/04 13:17:29;;;;;;;7.75;3.13;;;;;;;;;;5072728;28;20052;-67
2021/09/04 13:19:55;;;;;;;3.97;2.20;;;;;;;;;;5074242;28;20377;-67
2021/09/04 13:22:21;;;;;;;5.03;2.38;;;;;;;;;;5073983;28;20468;-67
2021/09/04 13:24:47;;;;;;;5.65;2.78;;;;;;;;;;5073929;28;20044;-67
2021/09/04 13:27:13;;;;;;;5.20;3.03;;;;;;;;;;5073953;28;20020;-67
2021/09/04 13:29:39;;;;;;;5.55;2.67;;;;;;;;;;5074172;28;20055;-67
2021/09/04 13:32:06;;;;;;;4.85;2.50;;;;;;;;;;5074104;28;20024;-67
2021/09/04 13:34:32;;;;;;;4.53;2.40;;;;;;;;;;5073851;28;20032;-67
2021/09/04 13:36:58;;;;;;;4.82;2.30;;;;;;;;;;5073800;28;20027;-68
2021/09/04 13:39:25;;;;;;;4.50;2.33;;;;;;;;;;5073669;28;20148;-67
2021/09/04 13:41:51;;;;;;;4.38;2.28;;;;;;;;;;5070315;28;20628;-68
2021/09/04 13:44:17;;;;;;;4.93;2.90;;;;;;;;;;5073569;28;20540;-68
2021/09/04 13:46:43;;;;;;;4.63;2.50;;;;;;;;;;5073578;28;20692;-67
2021/09/04 13:49:09;;;;;;;4.63;2.67;;;;;;;;;;5073688;28;20100;-67
2021/09/04 13:51:36;;;;;;;4.47;2.70;;;;;;;;;;5073538;28;20230;-68
2021/09/04 13:54:02;;;;;;;4.88;2.45;;;;;;;;;;5073339;28;20035;-68
2021/09/04 13:56:28;;;;;;;4.85;2.90;;;;;;;;;;5072959;28;20037;-67
2021/09/04 13:58:54;;;;;;;5.55;2.60;;;;;;;;;;5073237;28;20032;-68
2021/09/04 14:01:20;;;;;;;4.35;2.38;;;;;;;;;;5073834;28;20096;-68
2021/09/04 14:03:46;;;;;;;4.53;2.42;;;;;;;;;;5071543;28;20039;-67
2021/09/04 14:06:12;;;;;;;4.47;2.38;;;;;;;;;;5073311;28;20097;-67
2021/09/04 14:08:38;;;;;;;4.47;2.28;;;;;;;;;;5073111;28;20032;-67
2021/09/04 14:11:05;;;;;;;4.15;2.30;;;;;;;;;;5072850;28;20059;-68
2021/09/04 14:13:31;;;;;;;4.68;2.30;;;;;;;;;;5073233;28;20527;-67
2021/09/04 14:15:57;;;;;;;5.22;2.72;;;;;;;;;;5073010;28;20028;-67
2021/09/04 14:18:23;;;;;;;4.68;2.40;;;;;;;;;;5073188;28;20059;-67
2021/09/04 14:20:49;;;;;;;4.40;2.45;;;;;;;;;;5072687;28;20031;-68
2021/09/04 14:23:16;;;;;;;5.40;1.95;;;;;;;;;;5072797;28;20095;-67
2021/09/04 14:25:42;;;;;;;4.85;2.40;;;;;;;;;;5072676;28;20032;-67
2021/09/04 14:28:08;;;;;;;4.13;2.42;;;;;;;;;;5072588;28;20055;-67
2021/09/04 14:30:34;;;;;;;4.88;2.40;;;;;;;;;;5088227;28;20502;-67
2021/09/04 14:33:00;;;;;;;3.80;2.05;;;;;;;;;;5072709;28;20479;-68
2021/09/04 14:35:27;;;;;;;3.67;2.10;;;;;;;;;;5072756;28;20371;-67
2021/09/04 14:37:53;;;;;;;4.50;2.30;;;;;;;;;;5072812;28;20025;-67
2021/09/04 14:40:19;;;;;;;4.75;2.40;;;;;;;;;;5070212;28;20020;-68